sensor_id;sensor_type;location;lat;lon;timestamp;P1;durP1;ratioP1;P2;durP2;ratioP2
19219;SDS011;9744;49.364;7.484;2022-12-20T00:00:57;5.15;;;3.35;;
19219;SDS011;9744;49.364;7.484;2022-12-20T00:03:24;9.90;;;3.63;;
19219;SDS011;9744;49.364;7.484;2022-12-20T00:05:51;6.53;;;3.55;;
19219;SDS011;9744;49.364;7.484;2022-12-20T00:08:19;4.70;;;3.30;;
19219;SDS011;9744;49.364;7.484;2022-12-20T00:10:47;6.88;;;3.70;;
19219;SDS011;9744;49.364;7.484;2022-12-20T00:13:14;8.40;;;4.07;;
19219;SDS011;9744;49.364;7.484;2022-12-20T00:15:42;8.77;;;3.35;;
19219;SDS011;9744;49.364;7.484;2022-12-20T00:18:09;9.30;;;3.20;;
19219;SDS011;9744;49.364;7.484;2022-12-20T00:20:36;4.47;;;2.75;;
19219;SDS011;9744;49.364;7.484;2022-12-20T00:23:03;3.75;;;2.60;;
19219;SDS011;9744;49.364;7.484;2022-12-20T00:25:30;4.18;;;2.72;;
19219;SDS011;9744;49.364;7.484;2022-12-20T00:27:59;6.80;;;2.92;;
19219;SDS011;9744;49.364;7.484;2022-12-20T00:30:27;6.35;;;2.83;;
19219;SDS011;9744;49.364;7.484;2022-12-20T00:32:54;9.00;;;4.10;;
19219;SDS011;9744;49.364;7.484;2022-12-20T00:35:22;4.18;;;2.60;;
19219;SDS011;9744;49.364;7.484;2022-12-20T00:37:50;6.25;;;3.00;;
19219;SDS011;9744;49.364;7.484;2022-12-20T00:40:17;9.95;;;2.47;;
19219;SDS011;9744;49.364;7.484;2022-12-20T00:42:45;4.72;;;3.00;;
19219;SDS011;9744;49.364;7.484;2022-12-20T00:45:14;5.78;;;2.42;;
19219;SDS011;9744;49.364;7.484;2022-12-20T00:47:41;4.45;;;2.67;;
19219;SDS011;9744;49.364;7.484;2022-12-20T00:50:09;6.25;;;2.90;;
19219;SDS011;9744;49.364;7.484;2022-12-20T00:52:37;3.55;;;2.30;;
19219;SDS011;9744;49.364;7.484;2022-12-20T00:55:04;6.75;;;2.92;;
19219;SDS011;9744;49.364;7.484;2022-12-20T00:57:31;6.72;;;2.75;;
19219;SDS011;9744;49.364;7.484;2022-12-20T00:59:59;8.30;;;3.25;;
19219;SDS011;9744;49.364;7.484;2022-12-20T01:02:27;9.35;;;2.63;;
19219;SDS011;9744;49.364;7.484;2022-12-20T01:12:56;4.63;;;3.10;;
19219;SDS011;9744;49.364;7.484;2022-12-20T01:15:24;9.85;;;3.67;;
19219;SDS011;9744;49.364;7.484;2022-12-20T01:17:52;5.53;;;3.60;;
19219;SDS011;9744;49.364;7.484;2022-12-20T01:20:19;5.32;;;3.15;;
19219;SDS011;9744;49.364;7.484;2022-12-20T01:22:47;14.68;;;6.22;;
19219;SDS011;9744;49.364;7.484;2022-12-20T01:25:15;6.47;;;3.72;;
19219;SDS011;9744;49.364;7.484;2022-12-20T01:27:42;5.45;;;3.30;;
19219;SDS011;9744;49.364;7.484;2022-12-20T01:30:10;7.35;;;3.10;;
19219;SDS011;9744;49.364;7.484;2022-12-20T01:32:38;7.25;;;3.40;;
19219;SDS011;9744;49.364;7.484;2022-12-20T01:35:07;7.70;;;3.40;;
19219;SDS011;9744;49.364;7.484;2022-12-20T01:37:35;8.38;;;3.13;;
19219;SDS011;9744;49.364;7.484;2022-12-20T01:40:02;8.00;;;3.17;;
19219;SDS011;9744;49.364;7.484;2022-12-20T01:42:30;6.95;;;3.13;;
19219;SDS011;9744;49.364;7.484;2022-12-20T01:44:57;6.47;;;3.05;;
19219;SDS011;9744;49.364;7.484;2022-12-20T01:47:25;6.43;;;3.03;;
19219;SDS011;9744;49.364;7.484;2022-12-20T01:49:57;8.10;;;3.00;;
19219;SDS011;9744;49.364;7.484;2022-12-20T01:52:31;4.60;;;2.85;;
19219;SDS011;9744;49.364;7.484;2022-12-20T01:55:04;6.03;;;3.33;;
19219;SDS011;9744;49.364;7.484;2022-12-20T01:57:35;6.45;;;3.30;;
19219;SDS011;9744;49.364;7.484;2022-12-20T02:00:07;5.97;;;3.42;;
19219;SDS011;9744;49.364;7.484;2022-12-20T02:02:41;7.32;;;3.53;;
19219;SDS011;9744;49.364;7.484;2022-12-20T02:05:09;5.63;;;3.95;;
19219;SDS011;9744;49.364;7.484;2022-12-20T02:07:40;8.40;;;3.05;;
19219;SDS011;9744;49.364;7.484;2022-12-20T02:10:10;5.07;;;3.47;;
19219;SDS011;9744;49.364;7.484;2022-12-20T02:12:39;10.57;;;3.40;;
19219;SDS011;9744;49.364;7.484;2022-12-20T02:15:16;11.15;;;4.25;;
19219;SDS011;9744;49.364;7.484;2022-12-20T02:17:58;7.93;;;4.00;;
19219;SDS011;9744;49.364;7.484;2022-12-20T02:23:43;10.05;;;4.18;;
19219;SDS011;9744;49.364;7.484;2022-12-20T02:26:27;8.88;;;4.35;;
19219;SDS011;9744;49.364;7.484;2022-12-20T02:29:15;10.82;;;4.80;;
19219;SDS011;9744;49.364;7.484;2022-12-20T02:31:50;8.93;;;4.45;;
19219;SDS011;9744;49.364;7.484;2022-12-20T02:34:24;7.30;;;4.55;;
19219;SDS011;9744;49.364;7.484;2022-12-20T02:36:52;9.15;;;4.78;;
19219;SDS011;9744;49.364;7.484;2022-12-20T02:39:20;10.25;;;4.45;;
19219;SDS011;9744;49.364;7.484;2022-12-20T02:41:52;8.25;;;5.20;;
19219;SDS011;9744;49.364;7.484;2022-12-20T02:44:23;9.32;;;4.53;;
19219;SDS011;9744;49.364;7.484;2022-12-20T02:47:13;8.18;;;5.07;;
19219;SDS011;9744;49.364;7.484;2022-12-20T02:49:45;7.70;;;4.90;;
19219;SDS011;9744;49.364;7.484;2022-12-20T02:52:13;9.98;;;4.63;;
19219;SDS011;9744;49.364;7.484;2022-12-20T02:54:42;10.63;;;5.03;;
19219;SDS011;9744;49.364;7.484;2022-12-20T02:57:10;8.55;;;4.95;;
19219;SDS011;9744;49.364;7.484;2022-12-20T02:59:44;8.93;;;4.82;;
19219;SDS011;9744;49.364;7.484;2022-12-20T03:02:18;8.35;;;4.53;;
19219;SDS011;9744;49.364;7.484;2022-12-20T03:04:48;10.95;;;5.38;;
19219;SDS011;9744;49.364;7.484;2022-12-20T03:07:16;6.82;;;4.18;;
19219;SDS011;9744;49.364;7.484;2022-12-20T03:09:44;9.95;;;4.78;;
19219;SDS011;9744;49.364;7.484;2022-12-20T03:12:13;10.35;;;4.85;;
19219;SDS011;9744;49.364;7.484;2022-12-20T03:14:41;14.18;;;4.38;;
19219;SDS011;9744;49.364;7.484;2022-12-20T03:17:11;8.93;;;5.35;;
19219;SDS011;9744;49.364;7.484;2022-12-20T03:19:39;10.00;;;4.55;;
19219;SDS011;9744;49.364;7.484;2022-12-20T03:22:07;10.20;;;5.03;;
19219;SDS011;9744;49.364;7.484;2022-12-20T03:24:34;8.52;;;4.28;;
19219;SDS011;9744;49.364;7.484;2022-12-20T03:27:06;12.65;;;5.07;;
19219;SDS011;9744;49.364;7.484;2022-12-20T03:29:34;8.88;;;4.40;;
19219;SDS011;9744;49.364;7.484;2022-12-20T03:32:01;8.85;;;4.20;;
19219;SDS011;9744;49.364;7.484;2022-12-20T03:34:29;9.55;;;4.80;;
19219;SDS011;9744;49.364;7.484;2022-12-20T03:36:58;9.02;;;4.57;;
19219;SDS011;9744;49.364;7.484;2022-12-20T03:39:25;10.55;;;5.00;;
19219;SDS011;9744;49.364;7.484;2022-12-20T03:41:55;9.75;;;4.78;;
19219;SDS011;9744;49.364;7.484;2022-12-20T03:44:22;9.55;;;4.70;;
19219;SDS011;9744;49.364;7.484;2022-12-20T03:46:50;9.02;;;5.00;;
19219;SDS011;9744;49.364;7.484;2022-12-20T03:49:18;10.38;;;4.75;;
19219;SDS011;9744;49.364;7.484;2022-12-20T03:51:49;10.50;;;4.80;;
19219;SDS011;9744;49.364;7.484;2022-12-20T03:54:17;9.43;;;4.70;;
19219;SDS011;9744;49.364;7.484;2022-12-20T03:57:04;11.07;;;4.65;;
19219;SDS011;9744;49.364;7.484;2022-12-20T03:59:32;9.65;;;4.57;;
19219;SDS011;9744;49.364;7.484;2022-12-20T04:02:01;7.47;;;4.60;;
19219;SDS011;9744;49.364;7.484;2022-12-20T04:04:28;7.57;;;4.75;;
19219;SDS011;9744;49.364;7.484;2022-12-20T04:06:56;9.63;;;4.90;;
19219;SDS011;9744;49.364;7.484;2022-12-20T04:09:25;9.23;;;4.82;;
19219;SDS011;9744;49.364;7.484;2022-12-20T04:11:57;9.18;;;4.85;;
19219;SDS011;9744;49.364;7.484;2022-12-20T04:14:26;7.55;;;4.40;;
19219;SDS011;9744;49.364;7.484;2022-12-20T04:16:54;7.32;;;4.30;;
19219;SDS011;9744;49.364;7.484;2022-12-20T04:19:22;9.98;;;4.88;;
19219;SDS011;9744;49.364;7.484;2022-12-20T04:21:49;8.98;;;5.10;;
19219;SDS011;9744;49.364;7.484;2022-12-20T04:24:18;9.23;;;4.65;;
19219;SDS011;9744;49.364;7.484;2022-12-20T04:27:16;9.82;;;5.53;;
19219;SDS011;9744;49.364;7.484;2022-12-20T04:29:43;8.93;;;4.80;;
19219;SDS011;9744;49.364;7.484;2022-12-20T04:32:14;11.75;;;4.70;;
19219;SDS011;9744;49.364;7.484;2022-12-20T04:34:41;11.93;;;5.00;;
19219;SDS011;9744;49.364;7.484;2022-12-20T04:37:09;8.80;;;4.95;;
19219;SDS011;9744;49.364;7.484;2022-12-20T04:39:44;7.68;;;4.72;;
19219;SDS011;9744;49.364;7.484;2022-12-20T04:42:21;7.40;;;4.65;;
19219;SDS011;9744;49.364;7.484;2022-12-20T04:44:49;10.45;;;4.55;;
19219;SDS011;9744;49.364;7.484;2022-12-20T04:47:22;8.20;;;4.60;;
19219;SDS011;9744;49.364;7.484;2022-12-20T04:49:50;10.38;;;4.95;;
19219;SDS011;9744;49.364;7.484;2022-12-20T04:52:18;10.48;;;5.30;;
19219;SDS011;9744;49.364;7.484;2022-12-20T04:55:03;8.05;;;4.15;;
19219;SDS011;9744;49.364;7.484;2022-12-20T04:57:34;6.97;;;4.72;;
19219;SDS011;9744;49.364;7.484;2022-12-20T05:00:04;8.00;;;4.65;;
19219;SDS011;9744;49.364;7.484;2022-12-20T05:02:39;9.88;;;5.22;;
19219;SDS011;9744;49.364;7.484;2022-12-20T05:05:11;9.75;;;4.70;;
19219;SDS011;9744;49.364;7.484;2022-12-20T05:07:45;9.55;;;4.90;;
19219;SDS011;9744;49.364;7.484;2022-12-20T05:10:13;7.65;;;4.68;;
19219;SDS011;9744;49.364;7.484;2022-12-20T05:12:41;12.73;;;4.75;;
19219;SDS011;9744;49.364;7.484;2022-12-20T05:15:15;7.88;;;4.80;;
19219;SDS011;9744;49.364;7.484;2022-12-20T05:17:43;14.13;;;5.07;;
19219;SDS011;9744;49.364;7.484;2022-12-20T05:20:11;9.75;;;4.82;;
19219;SDS011;9744;49.364;7.484;2022-12-20T05:22:41;7.93;;;4.55;;
19219;SDS011;9744;49.364;7.484;2022-12-20T05:25:26;8.73;;;4.35;;
19219;SDS011;9744;49.364;7.484;2022-12-20T05:28:14;6.32;;;4.28;;
19219;SDS011;9744;49.364;7.484;2022-12-20T05:30:41;7.53;;;4.45;;
19219;SDS011;9744;49.364;7.484;2022-12-20T05:33:09;8.82;;;4.80;;
19219;SDS011;9744;49.364;7.484;2022-12-20T05:35:37;11.48;;;4.68;;
19219;SDS011;9744;49.364;7.484;2022-12-20T05:38:11;10.30;;;4.90;;
19219;SDS011;9744;49.364;7.484;2022-12-20T05:40:39;10.05;;;4.50;;
19219;SDS011;9744;49.364;7.484;2022-12-20T05:43:07;7.63;;;4.18;;
19219;SDS011;9744;49.364;7.484;2022-12-20T05:45:45;9.07;;;4.57;;
19219;SDS011;9744;49.364;7.484;2022-12-20T05:48:16;12.40;;;4.78;;
19219;SDS011;9744;49.364;7.484;2022-12-20T05:50:45;7.65;;;4.30;;
19219;SDS011;9744;49.364;7.484;2022-12-20T05:53:24;9.98;;;4.68;;
19219;SDS011;9744;49.364;7.484;2022-12-20T05:55:54;7.35;;;4.20;;
19219;SDS011;9744;49.364;7.484;2022-12-20T05:58:28;12.40;;;6.05;;
19219;SDS011;9744;49.364;7.484;2022-12-20T06:01:00;7.90;;;5.10;;
19219;SDS011;9744;49.364;7.484;2022-12-20T06:06:31;11.00;;;5.18;;
19219;SDS011;9744;49.364;7.484;2022-12-20T06:08:59;11.00;;;5.65;;
19219;SDS011;9744;49.364;7.484;2022-12-20T06:11:43;8.85;;;4.75;;
19219;SDS011;9744;49.364;7.484;2022-12-20T06:14:13;9.73;;;4.95;;
19219;SDS011;9744;49.364;7.484;2022-12-20T06:16:47;6.78;;;3.97;;
19219;SDS011;9744;49.364;7.484;2022-12-20T06:19:16;7.93;;;5.28;;
19219;SDS011;9744;49.364;7.484;2022-12-20T06:21:43;13.02;;;3.88;;
19219;SDS011;9744;49.364;7.484;2022-12-20T06:24:13;12.57;;;4.40;;
19219;SDS011;9744;49.364;7.484;2022-12-20T06:26:43;10.57;;;6.00;;
19219;SDS011;9744;49.364;7.484;2022-12-20T06:29:13;13.65;;;6.97;;
19219;SDS011;9744;49.364;7.484;2022-12-20T06:34:51;12.45;;;6.45;;
19219;SDS011;9744;49.364;7.484;2022-12-20T06:51:15;24.02;;;10.50;;
19219;SDS011;9744;49.364;7.484;2022-12-20T07:02:29;13.63;;;7.55;;
19219;SDS011;9744;49.364;7.484;2022-12-20T07:04:56;11.63;;;6.75;;
19219;SDS011;9744;49.364;7.484;2022-12-20T07:07:24;12.98;;;5.75;;
19219;SDS011;9744;49.364;7.484;2022-12-20T07:09:51;11.27;;;6.70;;
19219;SDS011;9744;49.364;7.484;2022-12-20T07:12:19;16.67;;;7.20;;
19219;SDS011;9744;49.364;7.484;2022-12-20T07:14:46;11.35;;;5.22;;
19219;SDS011;9744;49.364;7.484;2022-12-20T07:17:13;9.57;;;4.18;;
19219;SDS011;9744;49.364;7.484;2022-12-20T07:19:41;8.00;;;5.15;;
19219;SDS011;9744;49.364;7.484;2022-12-20T07:22:08;8.50;;;5.00;;
19219;SDS011;9744;49.364;7.484;2022-12-20T07:24:37;7.35;;;3.97;;
19219;SDS011;9744;49.364;7.484;2022-12-20T07:27:04;9.52;;;5.60;;
19219;SDS011;9744;49.364;7.484;2022-12-20T07:29:31;11.13;;;6.10;;
19219;SDS011;9744;49.364;7.484;2022-12-20T07:31:58;16.30;;;8.25;;
19219;SDS011;9744;49.364;7.484;2022-12-20T07:34:25;16.38;;;7.35;;
19219;SDS011;9744;49.364;7.484;2022-12-20T07:36:52;25.83;;;12.00;;
19219;SDS011;9744;49.364;7.484;2022-12-20T07:39:19;8.80;;;6.10;;
19219;SDS011;9744;49.364;7.484;2022-12-20T07:41:48;16.58;;;6.45;;
19219;SDS011;9744;49.364;7.484;2022-12-20T07:44:21;6.78;;;4.30;;
19219;SDS011;9744;49.364;7.484;2022-12-20T07:46:49;11.30;;;4.82;;
19219;SDS011;9744;49.364;7.484;2022-12-20T07:51:53;7.75;;;4.10;;
19219;SDS011;9744;49.364;7.484;2022-12-20T07:54:23;6.53;;;3.80;;
19219;SDS011;9744;49.364;7.484;2022-12-20T07:56:55;7.70;;;3.97;;
19219;SDS011;9744;49.364;7.484;2022-12-20T07:59:26;11.93;;;6.60;;
19219;SDS011;9744;49.364;7.484;2022-12-20T08:01:55;7.25;;;3.63;;
19219;SDS011;9744;49.364;7.484;2022-12-20T08:04:24;7.60;;;3.70;;
19219;SDS011;9744;49.364;7.484;2022-12-20T08:06:55;6.65;;;3.13;;
19219;SDS011;9744;49.364;7.484;2022-12-20T08:09:24;10.13;;;3.60;;
19219;SDS011;9744;49.364;7.484;2022-12-20T08:11:56;6.80;;;3.25;;
19219;SDS011;9744;49.364;7.484;2022-12-20T08:14:24;7.78;;;4.05;;
19219;SDS011;9744;49.364;7.484;2022-12-20T08:16:52;13.00;;;3.97;;
19219;SDS011;9744;49.364;7.484;2022-12-20T08:19:19;7.00;;;3.50;;
19219;SDS011;9744;49.364;7.484;2022-12-20T08:21:46;4.07;;;3.20;;
19219;SDS011;9744;49.364;7.484;2022-12-20T08:24:13;6.78;;;3.78;;
19219;SDS011;9744;49.364;7.484;2022-12-20T08:26:40;9.10;;;3.63;;
19219;SDS011;9744;49.364;7.484;2022-12-20T08:29:09;6.07;;;3.47;;
19219;SDS011;9744;49.364;7.484;2022-12-20T08:31:36;7.40;;;3.90;;
19219;SDS011;9744;49.364;7.484;2022-12-20T08:34:04;4.78;;;2.90;;
19219;SDS011;9744;49.364;7.484;2022-12-20T08:53:44;5.50;;;2.80;;
19219;SDS011;9744;49.364;7.484;2022-12-20T08:56:12;7.88;;;2.95;;
19219;SDS011;9744;49.364;7.484;2022-12-20T08:58:40;6.97;;;3.25;;
19219;SDS011;9744;49.364;7.484;2022-12-20T09:01:09;5.95;;;2.85;;
19219;SDS011;9744;49.364;7.484;2022-12-20T09:03:39;6.90;;;3.28;;
19219;SDS011;9744;49.364;7.484;2022-12-20T09:06:07;4.20;;;2.75;;
19219;SDS011;9744;49.364;7.484;2022-12-20T09:08:35;8.02;;;3.50;;
19219;SDS011;9744;49.364;7.484;2022-12-20T09:11:06;6.45;;;3.17;;
19219;SDS011;9744;49.364;7.484;2022-12-20T09:13:34;8.15;;;3.60;;
19219;SDS011;9744;49.364;7.484;2022-12-20T09:16:02;6.50;;;2.67;;
19219;SDS011;9744;49.364;7.484;2022-12-20T09:18:30;9.23;;;3.28;;
19219;SDS011;9744;49.364;7.484;2022-12-20T09:20:58;7.50;;;3.05;;
19219;SDS011;9744;49.364;7.484;2022-12-20T09:23:25;5.45;;;3.25;;
19219;SDS011;9744;49.364;7.484;2022-12-20T09:25:53;4.50;;;2.80;;
19219;SDS011;9744;49.364;7.484;2022-12-20T09:28:22;6.10;;;2.38;;
19219;SDS011;9744;49.364;7.484;2022-12-20T09:30:49;4.30;;;2.63;;
19219;SDS011;9744;49.364;7.484;2022-12-20T09:33:16;8.88;;;3.05;;
19219;SDS011;9744;49.364;7.484;2022-12-20T09:35:44;6.15;;;3.05;;
19219;SDS011;9744;49.364;7.484;2022-12-20T09:38:11;5.15;;;2.90;;
19219;SDS011;9744;49.364;7.484;2022-12-20T09:40:44;8.18;;;3.03;;
19219;SDS011;9744;49.364;7.484;2022-12-20T09:43:14;8.25;;;3.25;;
19219;SDS011;9744;49.364;7.484;2022-12-20T09:45:44;8.85;;;4.30;;
19219;SDS011;9744;49.364;7.484;2022-12-20T09:48:15;8.88;;;3.35;;
19219;SDS011;9744;49.364;7.484;2022-12-20T09:50:45;8.10;;;3.92;;
19219;SDS011;9744;49.364;7.484;2022-12-20T09:53:23;10.07;;;3.97;;
19219;SDS011;9744;49.364;7.484;2022-12-20T09:56:00;6.00;;;2.92;;
19219;SDS011;9744;49.364;7.484;2022-12-20T09:58:35;4.30;;;2.70;;
19219;SDS011;9744;49.364;7.484;2022-12-20T10:01:13;4.70;;;2.72;;
19219;SDS011;9744;49.364;7.484;2022-12-20T10:03:43;4.63;;;2.58;;
19219;SDS011;9744;49.364;7.484;2022-12-20T10:06:12;8.30;;;3.15;;
19219;SDS011;9744;49.364;7.484;2022-12-20T10:08:49;10.30;;;2.50;;
19219;SDS011;9744;49.364;7.484;2022-12-20T10:11:40;5.32;;;2.72;;
19219;SDS011;9744;49.364;7.484;2022-12-20T10:14:24;10.05;;;5.15;;
19219;SDS011;9744;49.364;7.484;2022-12-20T10:17:09;26.92;;;11.25;;
19219;SDS011;9744;49.364;7.484;2022-12-20T10:19:47;23.00;;;7.10;;
19219;SDS011;9744;49.364;7.484;2022-12-20T10:22:25;20.58;;;9.85;;
19219;SDS011;9744;49.364;7.484;2022-12-20T10:25:06;7.68;;;3.55;;
19219;SDS011;9744;49.364;7.484;2022-12-20T10:27:41;8.82;;;3.10;;
19219;SDS011;9744;49.364;7.484;2022-12-20T10:30:10;10.98;;;3.80;;
19219;SDS011;9744;49.364;7.484;2022-12-20T10:32:45;10.15;;;3.58;;
19219;SDS011;9744;49.364;7.484;2022-12-20T10:35:17;5.65;;;3.40;;
19219;SDS011;9744;49.364;7.484;2022-12-20T10:37:55;6.47;;;3.10;;
19219;SDS011;9744;49.364;7.484;2022-12-20T10:40:27;6.45;;;3.20;;
19219;SDS011;9744;49.364;7.484;2022-12-20T10:42:56;7.30;;;2.83;;
19219;SDS011;9744;49.364;7.484;2022-12-20T10:45:29;11.77;;;3.58;;
19219;SDS011;9744;49.364;7.484;2022-12-20T10:48:01;5.75;;;3.03;;
19219;SDS011;9744;49.364;7.484;2022-12-20T10:50:31;8.63;;;3.40;;
19219;SDS011;9744;49.364;7.484;2022-12-20T10:53:03;4.10;;;2.70;;
19219;SDS011;9744;49.364;7.484;2022-12-20T10:55:49;8.55;;;2.67;;
19219;SDS011;9744;49.364;7.484;2022-12-20T10:58:20;2.90;;;2.38;;
19219;SDS011;9744;49.364;7.484;2022-12-20T11:01:02;5.82;;;2.67;;
19219;SDS011;9744;49.364;7.484;2022-12-20T11:03:34;5.82;;;2.80;;
19219;SDS011;9744;49.364;7.484;2022-12-20T11:06:17;6.43;;;2.67;;
19219;SDS011;9744;49.364;7.484;2022-12-20T11:08:46;4.70;;;2.38;;
19219;SDS011;9744;49.364;7.484;2022-12-20T11:13:51;12.55;;;5.15;;
19219;SDS011;9744;49.364;7.484;2022-12-20T11:16:22;10.73;;;5.63;;
19219;SDS011;9744;49.364;7.484;2022-12-20T11:27:49;4.55;;;2.58;;
19219;SDS011;9744;49.364;7.484;2022-12-20T11:30:25;5.72;;;3.38;;
19219;SDS011;9744;49.364;7.484;2022-12-20T11:33:14;7.45;;;3.58;;
19219;SDS011;9744;49.364;7.484;2022-12-20T11:36:01;6.60;;;3.00;;
19219;SDS011;9744;49.364;7.484;2022-12-20T11:41:40;5.65;;;3.70;;
19219;SDS011;9744;49.364;7.484;2022-12-20T11:44:16;5.88;;;3.08;;
19219;SDS011;9744;49.364;7.484;2022-12-20T11:46:56;7.68;;;3.67;;
19219;SDS011;9744;49.364;7.484;2022-12-20T11:49:45;7.65;;;4.50;;
19219;SDS011;9744;49.364;7.484;2022-12-20T11:52:29;5.82;;;3.17;;
19219;SDS011;9744;49.364;7.484;2022-12-20T11:55:03;6.22;;;2.83;;
19219;SDS011;9744;49.364;7.484;2022-12-20T11:57:41;7.65;;;2.80;;
19219;SDS011;9744;49.364;7.484;2022-12-20T12:00:14;11.23;;;2.45;;
19219;SDS011;9744;49.364;7.484;2022-12-20T12:02:51;3.88;;;2.85;;
19219;SDS011;9744;49.364;7.484;2022-12-20T12:05:23;6.80;;;3.70;;
19219;SDS011;9744;49.364;7.484;2022-12-20T12:07:55;12.82;;;7.40;;
19219;SDS011;9744;49.364;7.484;2022-12-20T12:10:28;9.15;;;4.75;;
19219;SDS011;9744;49.364;7.484;2022-12-20T12:12:59;6.35;;;3.28;;
19219;SDS011;9744;49.364;7.484;2022-12-20T12:15:39;7.47;;;2.95;;
19219;SDS011;9744;49.364;7.484;2022-12-20T12:18:16;3.55;;;2.40;;
19219;SDS011;9744;49.364;7.484;2022-12-20T12:20:47;7.60;;;3.38;;
19219;SDS011;9744;49.364;7.484;2022-12-20T12:23:23;10.68;;;3.33;;
19219;SDS011;9744;49.364;7.484;2022-12-20T12:25:55;7.72;;;2.83;;
19219;SDS011;9744;49.364;7.484;2022-12-20T12:28:24;4.47;;;2.20;;
19219;SDS011;9744;49.364;7.484;2022-12-20T12:30:54;9.30;;;2.67;;
19219;SDS011;9744;49.364;7.484;2022-12-20T12:33:24;5.43;;;2.50;;
19219;SDS011;9744;49.364;7.484;2022-12-20T12:36:04;4.05;;;2.58;;
19219;SDS011;9744;49.364;7.484;2022-12-20T12:38:53;4.75;;;2.60;;
19219;SDS011;9744;49.364;7.484;2022-12-20T12:42:15;6.25;;;2.80;;
19219;SDS011;9744;49.364;7.484;2022-12-20T12:44:57;4.57;;;2.70;;
19219;SDS011;9744;49.364;7.484;2022-12-20T12:47:30;6.82;;;2.70;;
19219;SDS011;9744;49.364;7.484;2022-12-20T12:50:03;4.93;;;2.45;;
19219;SDS011;9744;49.364;7.484;2022-12-20T12:52:40;5.10;;;2.22;;
19219;SDS011;9744;49.364;7.484;2022-12-20T12:58:13;7.60;;;3.47;;
19219;SDS011;9744;49.364;7.484;2022-12-20T13:00:56;8.00;;;4.70;;
19219;SDS011;9744;49.364;7.484;2022-12-20T13:03:36;9.77;;;4.22;;
19219;SDS011;9744;49.364;7.484;2022-12-20T13:09:17;8.35;;;4.32;;
19219;SDS011;9744;49.364;7.484;2022-12-20T13:11:47;9.68;;;4.97;;
19219;SDS011;9744;49.364;7.484;2022-12-20T13:25:38;6.82;;;3.88;;
19219;SDS011;9744;49.364;7.484;2022-12-20T13:31:28;7.10;;;3.92;;
19219;SDS011;9744;49.364;7.484;2022-12-20T13:33:58;8.18;;;3.20;;
19219;SDS011;9744;49.364;7.484;2022-12-20T13:36:34;8.07;;;2.90;;
19219;SDS011;9744;49.364;7.484;2022-12-20T13:39:06;4.40;;;2.80;;
19219;SDS011;9744;49.364;7.484;2022-12-20T13:42:06;3.97;;;2.90;;
19219;SDS011;9744;49.364;7.484;2022-12-20T13:44:47;4.07;;;2.67;;
19219;SDS011;9744;49.364;7.484;2022-12-20T13:52:57;4.40;;;2.80;;
19219;SDS011;9744;49.364;7.484;2022-12-20T13:55:29;6.82;;;2.70;;
19219;SDS011;9744;49.364;7.484;2022-12-20T13:58:04;5.20;;;2.90;;
19219;SDS011;9744;49.364;7.484;2022-12-20T14:00:33;3.88;;;2.65;;
19219;SDS011;9744;49.364;7.484;2022-12-20T14:03:00;7.00;;;3.78;;
19219;SDS011;9744;49.364;7.484;2022-12-20T14:05:32;8.00;;;4.18;;
19219;SDS011;9744;49.364;7.484;2022-12-20T14:08:04;6.65;;;2.85;;
19219;SDS011;9744;49.364;7.484;2022-12-20T14:10:33;6.97;;;3.17;;
19219;SDS011;9744;49.364;7.484;2022-12-20T14:13:01;5.72;;;3.72;;
19219;SDS011;9744;49.364;7.484;2022-12-20T14:15:29;8.85;;;4.45;;
19219;SDS011;9744;49.364;7.484;2022-12-20T14:20:42;10.02;;;5.03;;
19219;SDS011;9744;49.364;7.484;2022-12-20T14:23:11;12.40;;;5.97;;
19219;SDS011;9744;49.364;7.484;2022-12-20T14:25:42;11.73;;;6.32;;
19219;SDS011;9744;49.364;7.484;2022-12-20T14:28:15;10.48;;;4.32;;
19219;SDS011;9744;49.364;7.484;2022-12-20T14:30:47;7.43;;;3.30;;
19219;SDS011;9744;49.364;7.484;2022-12-20T14:33:17;4.30;;;2.85;;
19219;SDS011;9744;49.364;7.484;2022-12-20T14:35:47;7.03;;;3.22;;
19219;SDS011;9744;49.364;7.484;2022-12-20T14:38:20;8.02;;;4.97;;
19219;SDS011;9744;49.364;7.484;2022-12-20T14:40:49;16.98;;;9.77;;
19219;SDS011;9744;49.364;7.484;2022-12-20T14:43:23;6.97;;;3.60;;
19219;SDS011;9744;49.364;7.484;2022-12-20T14:48:43;12.05;;;5.68;;
19219;SDS011;9744;49.364;7.484;2022-12-20T14:51:11;18.48;;;9.40;;
19219;SDS011;9744;49.364;7.484;2022-12-20T14:53:46;31.23;;;11.52;;
19219;SDS011;9744;49.364;7.484;2022-12-20T14:56:17;20.00;;;7.30;;
19219;SDS011;9744;49.364;7.484;2022-12-20T14:58:47;13.40;;;7.78;;
19219;SDS011;9744;49.364;7.484;2022-12-20T15:01:38;15.07;;;6.70;;
19219;SDS011;9744;49.364;7.484;2022-12-20T15:04:18;10.63;;;5.40;;
19219;SDS011;9744;49.364;7.484;2022-12-20T15:06:48;13.65;;;6.63;;
19219;SDS011;9744;49.364;7.484;2022-12-20T15:09:18;12.20;;;6.10;;
19219;SDS011;9744;49.364;7.484;2022-12-20T15:11:45;6.88;;;4.40;;
19219;SDS011;9744;49.364;7.484;2022-12-20T15:14:21;10.52;;;4.78;;
19219;SDS011;9744;49.364;7.484;2022-12-20T15:16:58;10.38;;;5.40;;
19219;SDS011;9744;49.364;7.484;2022-12-20T15:19:26;7.65;;;4.35;;
19219;SDS011;9744;49.364;7.484;2022-12-20T15:21:55;9.98;;;4.82;;
19219;SDS011;9744;49.364;7.484;2022-12-20T15:24:24;11.70;;;5.10;;
19219;SDS011;9744;49.364;7.484;2022-12-20T15:26:53;10.68;;;5.03;;
19219;SDS011;9744;49.364;7.484;2022-12-20T15:29:21;7.97;;;5.05;;
19219;SDS011;9744;49.364;7.484;2022-12-20T15:31:50;12.77;;;6.75;;
19219;SDS011;9744;49.364;7.484;2022-12-20T15:34:20;15.98;;;7.25;;
19219;SDS011;9744;49.364;7.484;2022-12-20T15:36:52;10.45;;;6.30;;
19219;SDS011;9744;49.364;7.484;2022-12-20T15:39:20;15.00;;;7.30;;
19219;SDS011;9744;49.364;7.484;2022-12-20T15:41:48;15.38;;;6.30;;
19219;SDS011;9744;49.364;7.484;2022-12-20T15:44:16;12.15;;;5.82;;
19219;SDS011;9744;49.364;7.484;2022-12-20T15:46:47;9.50;;;5.93;;
19219;SDS011;9744;49.364;7.484;2022-12-20T15:49:15;13.00;;;7.13;;
19219;SDS011;9744;49.364;7.484;2022-12-20T15:51:44;9.65;;;5.20;;
19219;SDS011;9744;49.364;7.484;2022-12-20T15:54:15;8.35;;;5.22;;
19219;SDS011;9744;49.364;7.484;2022-12-20T15:56:49;9.30;;;5.60;;
19219;SDS011;9744;49.364;7.484;2022-12-20T15:59:17;9.30;;;5.88;;
19219;SDS011;9744;49.364;7.484;2022-12-20T16:01:44;7.72;;;4.82;;
19219;SDS011;9744;49.364;7.484;2022-12-20T16:04:12;8.13;;;5.65;;
19219;SDS011;9744;49.364;7.484;2022-12-20T16:06:41;14.50;;;9.45;;
19219;SDS011;9744;49.364;7.484;2022-12-20T16:09:09;23.10;;;10.35;;
19219;SDS011;9744;49.364;7.484;2022-12-20T16:11:37;13.43;;;7.50;;
19219;SDS011;9744;49.364;7.484;2022-12-20T16:14:05;18.45;;;7.93;;
19219;SDS011;9744;49.364;7.484;2022-12-20T16:16:39;20.40;;;9.57;;
19219;SDS011;9744;49.364;7.484;2022-12-20T16:19:06;20.00;;;9.43;;
19219;SDS011;9744;49.364;7.484;2022-12-20T16:21:40;22.23;;;9.52;;
19219;SDS011;9744;49.364;7.484;2022-12-20T16:24:10;15.10;;;9.35;;
19219;SDS011;9744;49.364;7.484;2022-12-20T16:26:39;13.25;;;7.40;;
19219;SDS011;9744;49.364;7.484;2022-12-20T16:29:08;9.48;;;5.72;;
19219;SDS011;9744;49.364;7.484;2022-12-20T16:31:35;15.27;;;8.73;;
19219;SDS011;9744;49.364;7.484;2022-12-20T16:34:04;10.23;;;6.00;;
19219;SDS011;9744;49.364;7.484;2022-12-20T16:36:35;11.38;;;6.90;;
19219;SDS011;9744;49.364;7.484;2022-12-20T16:39:03;9.18;;;5.57;;
19219;SDS011;9744;49.364;7.484;2022-12-20T16:41:31;10.88;;;5.43;;
19219;SDS011;9744;49.364;7.484;2022-12-20T16:43:59;11.27;;;6.15;;
19219;SDS011;9744;49.364;7.484;2022-12-20T16:46:29;11.13;;;6.38;;
19219;SDS011;9744;49.364;7.484;2022-12-20T16:48:59;11.82;;;7.60;;
19219;SDS011;9744;49.364;7.484;2022-12-20T16:51:27;11.38;;;6.93;;
19219;SDS011;9744;49.364;7.484;2022-12-20T16:53:57;14.40;;;7.55;;
19219;SDS011;9744;49.364;7.484;2022-12-20T16:56:25;10.02;;;6.28;;
19219;SDS011;9744;49.364;7.484;2022-12-20T16:58:53;9.05;;;5.20;;
19219;SDS011;9744;49.364;7.484;2022-12-20T17:01:22;8.65;;;4.85;;
19219;SDS011;9744;49.364;7.484;2022-12-20T17:03:54;10.45;;;5.32;;
19219;SDS011;9744;49.364;7.484;2022-12-20T17:06:21;10.43;;;5.78;;
19219;SDS011;9744;49.364;7.484;2022-12-20T17:08:48;12.63;;;5.95;;